createdAt,value
2023-04-13T00:00:21.754Z,97453.72
2023-04-13T00:03:24.742Z,97455.91
2023-04-13T00:06:29.123Z,97459.44
2023-04-13T00:09:31.975Z,97464.94
2023-04-13T00:12:34.973Z,97481.84
2023-04-13T00:15:43.198Z,97475.78
2023-04-13T00:18:46.197Z,97478.09
2023-04-13T00:21:49.001Z,97487.06
2023-04-13T00:24:54.560Z,97494.59
2023-04-13T00:27:57.216Z,97492.31
2023-04-13T00:31:01.375Z,97482.25
2023-04-13T00:34:04.241Z,97480.34
2023-04-13T00:37:07.444Z,97480.97
2023-04-13T00:40:11.524Z,97479.63
2023-04-13T00:43:15.000Z,97475.63
2023-04-13T00:46:19.810Z,97479.50
2023-04-13T00:49:23.077Z,97474.66
2023-04-13T00:52:25.778Z,97469.59
2023-04-13T00:55:28.838Z,97476.41
2023-04-13T00:58:31.505Z,97469.25
2023-04-13T01:01:35.812Z,97474.34
2023-04-13T01:04:38.776Z,97470.91
2023-04-13T01:07:49.310Z,97483.00
2023-04-13T01:10:55.240Z,97489.28
2023-04-13T01:14:02.708Z,97485.19
2023-04-13T01:17:10.037Z,97498.94
2023-04-13T01:20:14.411Z,97490.41
2023-04-13T01:23:26.649Z,97481.94
2023-04-13T01:26:38.749Z,97482.63
2023-04-13T01:29:43.518Z,97480.44
2023-04-13T01:32:46.417Z,97480.34
2023-04-13T01:35:50.259Z,97481.16
2023-04-13T01:38:53.028Z,97477.47
2023-04-13T01:41:56.269Z,97473.34
2023-04-13T01:45:00.247Z,97478.91
2023-04-13T01:48:07.998Z,97476.38
2023-04-13T01:51:13.594Z,97475.13
2023-04-13T01:54:19.326Z,97468.09
2023-04-13T01:57:23.066Z,97459.16
2023-04-13T02:00:31.942Z,97457.75
2023-04-13T02:03:36.064Z,97453.44
2023-04-13T02:06:39.489Z,97460.28
2023-04-13T02:09:42.430Z,97466.16
2023-04-13T02:12:45.137Z,97467.75
2023-04-13T02:15:48.970Z,97474.75
2023-04-13T02:18:51.794Z,97477.84
2023-04-13T02:21:54.293Z,97487.81
2023-04-13T02:24:57.705Z,97476.59
2023-04-13T02:28:01.585Z,97474.41
2023-04-13T02:31:06.137Z,97473.91
2023-04-13T02:34:08.942Z,97477.91
2023-04-13T02:37:11.902Z,97487.66
2023-04-13T02:40:14.487Z,97482.81
2023-04-13T02:43:17.696Z,97478.78
2023-04-13T02:46:22.095Z,97478.63
2023-04-13T02:49:24.813Z,97473.25
2023-04-13T02:52:27.386Z,97472.28
2023-04-13T02:55:29.878Z,97472.50
2023-04-13T02:58:32.897Z,97470.63
2023-04-13T03:01:36.823Z,97474.00
2023-04-13T03:04:39.391Z,97471.28
2023-04-13T03:07:42.166Z,97469.59
2023-04-13T03:10:45.604Z,97481.41
2023-04-13T03:13:48.107Z,97480.00
2023-04-13T03:16:52.095Z,97479.84
2023-04-13T03:19:54.883Z,97475.72
2023-04-13T03:22:58.591Z,97470.00
2023-04-13T03:26:01.115Z,97483.50
2023-04-13T03:29:04.033Z,97494.00
2023-04-13T03:32:08.090Z,97483.63
2023-04-13T03:35:11.435Z,97489.84
2023-04-13T03:38:14.140Z,97499.72
2023-04-13T03:41:17.190Z,97495.38
2023-04-13T03:44:19.924Z,97494.59
2023-04-13T03:47:23.814Z,97500.13
2023-04-13T03:50:26.524Z,97503.81
2023-04-13T03:53:29.404Z,97512.16
2023-04-13T03:56:32.430Z,97509.88
2023-04-13T03:59:35.292Z,97523.69
2023-04-13T04:02:40.586Z,97521.38
2023-04-13T04:05:43.448Z,97526.50
2023-04-13T04:08:49.591Z,97532.25
2023-04-13T04:11:52.383Z,97538.06
2023-04-13T04:14:54.888Z,97535.22
2023-04-13T04:17:59.218Z,97536.94
2023-04-13T04:21:03.009Z,97533.94
2023-04-13T04:24:08.897Z,97545.41
2023-04-13T04:27:14.351Z,97540.78
2023-04-13T04:30:18.975Z,97528.94
2023-04-13T04:33:23.515Z,97536.13
2023-04-13T04:36:26.478Z,97526.88
2023-04-13T04:39:32.825Z,97527.09
2023-04-13T04:42:35.463Z,97529.44
2023-04-13T04:45:38.623Z,97530.31
2023-04-13T04:48:42.757Z,97531.66
2023-04-13T04:51:45.448Z,97532.47
2023-04-13T04:54:48.199Z,97545.75
2023-04-13T04:57:50.867Z,97540.19
2023-04-13T05:00:53.782Z,97538.25
2023-04-13T05:03:57.873Z,97534.84
2023-04-13T05:07:00.529Z,97531.75
2023-04-13T05:10:03.945Z,97535.66
2023-04-13T05:13:07.888Z,97540.97
2023-04-13T05:16:11.150Z,97540.78
2023-04-13T05:19:15.219Z,97543.50
2023-04-13T05:22:17.874Z,97542.50
2023-04-13T05:25:20.570Z,97540.72
2023-04-13T05:28:23.121Z,97532.63
2023-04-13T05:31:26.058Z,97542.69
2023-04-13T05:34:30.475Z,97542.66
2023-04-13T05:37:33.055Z,97547.06
2023-04-13T05:40:36.118Z,97550.88
2023-04-13T05:43:38.725Z,97563.19
2023-04-13T05:46:41.716Z,97571.41
2023-04-13T05:49:45.725Z,97575.19
2023-04-13T05:52:48.320Z,97577.91
2023-04-13T05:55:51.164Z,97571.13
2023-04-13T05:58:54.200Z,97569.22
2023-04-13T06:01:57.299Z,97582.41
2023-04-13T06:05:02.043Z,97576.16
2023-04-13T06:08:04.866Z,97577.59
2023-04-13T06:11:08.290Z,97583.22
2023-04-13T06:14:10.847Z,97582.16
2023-04-13T06:17:13.340Z,97573.72
2023-04-13T06:20:17.592Z,97585.22
2023-04-13T06:23:20.247Z,97581.94
2023-04-13T06:26:22.902Z,97584.47
2023-04-13T06:29:25.660Z,97592.41
2023-04-13T06:32:28.457Z,97596.38
2023-04-13T06:35:33.296Z,97601.44
2023-04-13T06:38:35.928Z,97608.78
2023-04-13T06:41:38.538Z,97598.28
2023-04-13T06:44:41.281Z,97601.78
2023-04-13T06:47:44.402Z,97599.38
2023-04-13T06:50:48.415Z,97603.75
2023-04-13T06:53:51.430Z,97607.75
2023-04-13T06:56:53.944Z,97603.47
2023-04-13T06:59:56.674Z,97592.84
2023-04-13T07:02:59.558Z,97598.78
2023-04-13T07:06:03.941Z,97587.22
2023-04-13T07:09:06.618Z,97585.09
2023-04-13T07:12:09.308Z,97598.34
2023-04-13T07:15:12.073Z,97591.94
2023-04-13T07:18:14.774Z,97594.72
2023-04-13T07:21:18.787Z,97592.88
2023-04-13T07:24:21.382Z,97599.09
2023-04-13T07:27:24.088Z,97604.59
2023-04-13T07:30:27.069Z,97608.41
2023-04-13T07:33:29.640Z,97604.59
2023-04-13T07:36:33.669Z,97603.56
2023-04-13T07:39:36.368Z,97611.84
2023-04-13T07:42:38.939Z,97613.47
2023-04-13T07:45:41.554Z,97608.28
2023-04-13T07:48:44.776Z,97610.28
2023-04-13T07:51:48.856Z,97603.31
2023-04-13T07:54:51.774Z,97598.44
2023-04-13T07:57:54.712Z,97602.22
2023-04-13T08:00:57.379Z,97603.16
2023-04-13T08:04:00.299Z,97609.06
2023-04-13T08:07:05.636Z,97619.09
2023-04-13T08:10:09.579Z,97624.75
2023-04-13T08:13:12.255Z,97631.13
2023-04-13T08:16:15.934Z,97626.81
2023-04-13T08:19:18.556Z,97633.91
2023-04-13T08:22:22.640Z,97622.97
2023-04-13T08:25:25.205Z,97617.09
2023-04-13T08:28:27.814Z,97628.28
2023-04-13T08:31:32.268Z,97628.56
2023-04-13T08:34:35.067Z,97616.66
2023-04-13T08:37:39.515Z,97617.03
2023-04-13T08:40:42.179Z,97631.16
2023-04-13T08:43:44.842Z,97622.47
2023-04-13T08:46:47.775Z,97626.44
2023-04-13T08:49:51.243Z,97643.06
2023-04-13T08:52:55.556Z,97626.56
2023-04-13T08:56:00.735Z,97634.66
2023-04-13T08:59:06.832Z,97636.66
2023-04-13T09:02:09.837Z,97631.75
2023-04-13T09:05:16.346Z,97627.84
2023-04-13T09:08:21.261Z,97634.66
2023-04-13T09:11:25.301Z,97623.97
2023-04-13T09:14:27.899Z,97630.44
2023-04-13T09:17:32.225Z,97624.69
2023-04-13T09:20:35.119Z,97633.06
2023-04-13T09:23:39.211Z,97632.94
2023-04-13T09:26:43.112Z,97621.38
2023-04-13T09:29:50.472Z,97627.16
2023-04-13T09:33:05.191Z,97616.38
2023-04-13T09:36:11.602Z,97611.91
2023-04-13T09:39:15.948Z,97605.69
2023-04-13T09:42:19.483Z,97610.81
2023-04-13T09:45:21.922Z,97613.19
2023-04-13T09:48:24.456Z,97606.75
2023-04-13T09:51:27.579Z,97618.31
2023-04-13T09:54:31.733Z,97608.94
2023-04-13T09:57:34.557Z,97611.34
2023-04-13T10:00:38.349Z,97608.25
2023-04-13T10:03:40.894Z,97600.84
2023-04-13T10:06:44.852Z,97617.44
2023-04-13T10:09:50.984Z,97600.59
2023-04-13T10:12:55.727Z,97606.13
2023-04-13T10:16:11.104Z,97597.44
2023-04-13T10:19:15.409Z,97601.66
2023-04-13T10:22:20.107Z,97597.31
2023-04-13T10:25:33.295Z,97598.19
2023-04-13T10:28:43.824Z,97595.50
2023-04-13T10:31:47.758Z,97598.34
2023-04-13T10:34:51.056Z,97595.94
2023-04-13T10:37:57.905Z,97603.34
2023-04-13T10:41:03.487Z,97598.56
2023-04-13T10:44:08.042Z,97604.66
2023-04-13T10:47:11.267Z,97596.94
2023-04-13T10:50:18.364Z,97597.31
2023-04-13T10:53:26.964Z,97593.66
2023-04-13T10:56:31.067Z,97591.00
2023-04-13T10:59:53.582Z,97598.09
2023-04-13T11:03:02.431Z,97602.59
2023-04-13T11:06:05.426Z,97591.59
2023-04-13T11:09:11.533Z,97595.44
2023-04-13T11:12:17.694Z,97602.31
2023-04-13T11:15:21.971Z,97586.69
2023-04-13T11:18:27.938Z,97589.66
2023-04-13T11:21:31.746Z,97584.47
2023-04-13T11:24:34.940Z,97586.09
2023-04-13T11:27:39.147Z,97585.94
2023-04-13T11:30:41.891Z,97595.06
2023-04-13T11:33:49.685Z,97595.25
2023-04-13T11:37:00.417Z,97627.38
2023-04-13T11:40:10.288Z,97642.00
2023-04-13T11:43:15.561Z,97640.41
2023-04-13T11:46:25.205Z,97639.19
2023-04-13T11:49:28.196Z,97634.34
2023-04-13T11:52:31.744Z,97620.47
2023-04-13T11:55:50.150Z,97617.81
2023-04-13T11:58:57.674Z,97616.91
2023-04-13T12:02:05.283Z,97612.06
2023-04-13T12:05:12.430Z,97618.09
2023-04-13T12:08:22.756Z,97616.78
2023-04-13T12:14:54.095Z,97603.13
2023-04-13T12:17:57.651Z,97608.69
2023-04-13T12:21:02.737Z,97610.63
2023-04-13T12:24:06.162Z,97608.00
2023-04-13T12:27:18.377Z,97601.53
2023-04-13T12:30:24.078Z,97610.19
2023-04-13T12:33:26.680Z,97593.56
2023-04-13T12:36:31.601Z,97593.94
2023-04-13T12:39:34.312Z,97586.78
2023-04-13T12:42:38.013Z,97583.94
2023-04-13T12:45:41.927Z,97584.06
2023-04-13T12:48:44.826Z,97581.00
2023-04-13T12:51:47.430Z,97577.94
2023-04-13T12:54:49.934Z,97583.91
2023-04-13T12:57:52.488Z,97575.44
2023-04-13T13:00:56.767Z,97575.66
2023-04-13T13:03:59.456Z,97573.44
2023-04-13T13:07:02.089Z,97578.53
2023-04-13T13:10:09.570Z,97580.47
2023-04-13T13:13:18.972Z,97579.56
2023-04-13T13:16:22.885Z,97587.50
2023-04-13T13:19:25.690Z,97579.59
2023-04-13T13:22:29.136Z,97584.25
2023-04-13T13:25:32.582Z,97583.84
2023-04-13T13:28:36.366Z,97588.63
2023-04-13T13:31:41.279Z,97594.63
2023-04-13T13:34:43.993Z,97599.72
2023-04-13T13:37:46.591Z,97603.69
2023-04-13T13:40:49.230Z,97584.22
2023-04-13T13:43:51.870Z,97583.91
2023-04-13T13:46:55.840Z,97585.59
2023-04-13T13:49:58.436Z,97591.91
2023-04-13T13:53:04.236Z,97580.38
2023-04-13T13:56:07.903Z,97588.84
2023-04-13T13:59:10.481Z,97584.38
2023-04-13T14:02:14.545Z,97590.91
2023-04-13T14:05:17.565Z,97590.31
2023-04-13T14:08:20.076Z,97582.63
2023-04-13T14:11:23.013Z,97585.34
2023-04-13T14:14:25.657Z,97589.75
2023-04-13T14:17:29.639Z,97594.50
2023-04-13T14:20:33.105Z,97590.91
2023-04-13T14:23:37.413Z,97595.38
2023-04-13T14:26:40.009Z,97593.69
2023-04-13T14:29:42.648Z,97602.34
2023-04-13T14:32:47.432Z,97605.50
2023-04-13T14:35:50.092Z,97610.53
2023-04-13T14:38:52.730Z,97608.72
2023-04-13T14:41:56.612Z,97609.63
2023-04-13T14:44:59.712Z,97607.72
2023-04-13T14:48:03.834Z,97607.78
2023-04-13T14:51:07.053Z,97608.81
2023-04-13T14:54:10.014Z,97610.78
2023-04-13T14:57:12.801Z,97609.34
2023-04-13T15:00:21.578Z,97611.81
2023-04-13T15:03:25.874Z,97621.31
2023-04-13T15:06:28.802Z,97619.03
2023-04-13T15:09:31.630Z,97611.66
2023-04-13T15:12:34.288Z,97616.22
2023-04-13T15:15:38.512Z,97623.28
2023-04-13T15:18:42.452Z,97621.44
2023-04-13T15:21:45.502Z,97624.88
2023-04-13T15:24:48.637Z,97628.06
2023-04-13T15:27:52.280Z,97632.91
2023-04-13T15:30:54.752Z,97641.25
2023-04-13T15:33:58.637Z,97646.88
2023-04-13T15:37:01.164Z,97661.41
2023-04-13T15:40:07.637Z,97671.84
2023-04-13T15:43:10.674Z,97677.81
2023-04-13T15:46:13.423Z,97672.81
2023-04-13T15:49:17.345Z,97663.09
2023-04-13T15:52:19.980Z,97672.16
2023-04-13T15:55:22.659Z,97662.22
2023-04-13T15:58:25.493Z,97656.06
2023-04-13T16:01:28.526Z,97657.88
2023-04-13T16:04:32.802Z,97661.19
2023-04-13T16:07:35.658Z,97663.06
2023-04-13T16:10:38.332Z,97667.81
2023-04-13T16:13:49.257Z,97673.91
2023-04-13T16:16:53.668Z,97674.50
2023-04-13T16:19:58.622Z,97678.25
2023-04-13T16:23:04.770Z,97687.84
2023-04-13T16:26:07.720Z,97685.34
2023-04-13T16:29:10.329Z,97676.69
2023-04-13T16:32:12.800Z,97692.41
2023-04-13T16:35:16.982Z,97691.25
2023-04-13T16:38:19.666Z,97704.66
2023-04-13T16:41:22.504Z,97689.75
2023-04-13T16:44:25.428Z,97693.84
2023-04-13T16:47:28.197Z,97693.06
2023-04-13T16:50:32.447Z,97693.66
2023-04-13T16:53:35.334Z,97689.72
2023-04-13T16:56:38.115Z,97687.13
2023-04-13T16:59:40.918Z,97685.09
2023-04-13T17:02:43.882Z,97694.59
2023-04-13T17:05:48.066Z,97699.25
2023-04-13T17:08:50.824Z,97710.75
2023-04-13T17:11:53.485Z,97713.34
2023-04-13T17:14:57.797Z,97718.59
2023-04-13T17:18:01.054Z,97724.06
2023-04-13T17:21:05.338Z,97724.28
2023-04-13T17:24:09.309Z,97729.97
2023-04-13T17:27:12.083Z,97734.19
2023-04-13T17:30:14.981Z,97738.25
2023-04-13T17:33:18.047Z,97737.88
2023-04-13T17:36:22.610Z,97748.03
2023-04-13T17:39:25.164Z,97756.53
2023-04-13T17:42:28.430Z,97757.41
2023-04-13T17:45:31.193Z,97767.56
2023-04-13T17:48:33.858Z,97760.38
2023-04-13T17:51:38.121Z,97757.91
2023-04-13T17:54:40.784Z,97760.72
2023-04-13T17:57:43.781Z,97765.16
2023-04-13T18:00:46.566Z,97760.63
2023-04-13T18:03:49.238Z,97764.16
2023-04-13T18:06:54.284Z,97749.94
2023-04-13T18:09:56.870Z,97756.34
2023-04-13T18:13:00.608Z,97758.63
2023-04-13T18:16:03.926Z,97761.53
2023-04-13T18:19:06.998Z,97759.88
2023-04-13T18:22:11.763Z,97769.78
2023-04-13T18:25:15.842Z,97769.50
2023-04-13T18:28:18.626Z,97774.28
2023-04-13T18:31:21.437Z,97777.66
2023-04-13T18:34:23.981Z,97767.75
2023-04-13T18:37:27.887Z,97776.41
2023-04-13T18:40:30.477Z,97769.75
2023-04-13T18:43:33.034Z,97766.44
2023-04-13T18:46:35.836Z,97773.13
2023-04-13T18:49:38.446Z,97770.75
2023-04-13T18:52:42.294Z,97777.28
2023-04-13T18:55:48.879Z,97777.78
2023-04-13T18:58:51.498Z,97772.25
2023-04-13T19:01:54.197Z,97773.22
2023-04-13T19:04:57.361Z,97776.56
2023-04-13T19:08:06.571Z,97770.81
2023-04-13T19:11:09.232Z,97768.41
2023-04-13T19:14:12.110Z,97762.66
2023-04-13T19:17:16.470Z,97778.50
2023-04-13T19:20:19.475Z,97777.84
2023-04-13T19:23:23.508Z,97768.91
2023-04-13T19:26:26.273Z,97766.34
2023-04-13T19:29:30.362Z,97765.69
2023-04-13T19:32:33.198Z,97780.22
2023-04-13T19:35:36.023Z,97779.59
2023-04-13T19:38:41.198Z,97782.44
2023-04-13T19:41:43.771Z,97776.69
2023-04-13T19:44:46.593Z,97782.75
2023-04-13T19:47:49.198Z,97779.09
2023-04-13T19:50:51.910Z,97781.16
2023-04-13T19:53:57.586Z,97783.06
2023-04-13T19:57:00.550Z,97783.41
2023-04-13T20:00:04.900Z,97783.56
2023-04-13T20:03:08.390Z,97796.84
2023-04-13T20:06:11.124Z,97791.59
2023-04-13T20:09:15.304Z,97792.38
2023-04-13T20:12:18.054Z,97797.66
2023-04-13T20:15:20.774Z,97800.22
2023-04-13T20:18:23.506Z,97797.31
2023-04-13T20:21:30.887Z,97807.69
2023-04-13T20:24:34.951Z,97816.28
2023-04-13T20:27:41.822Z,97811.50
2023-04-13T20:30:44.606Z,97818.09
2023-04-13T20:33:48.731Z,97821.59
2023-04-13T20:36:51.410Z,97823.69
2023-04-13T20:39:55.271Z,97828.84
2023-04-13T20:42:59.280Z,97833.94
2023-04-13T20:46:01.993Z,97836.66
2023-04-13T20:49:05.567Z,97833.16
2023-04-13T20:52:08.347Z,97839.38
2023-04-13T20:55:12.733Z,97835.56
2023-04-13T20:58:15.856Z,97825.78
2023-04-13T21:01:18.536Z,97828.50
2023-04-13T21:04:21.180Z,97819.38
2023-04-13T21:07:24.017Z,97818.44
2023-04-13T21:10:27.935Z,97807.09
2023-04-13T21:13:30.822Z,97805.50
2023-04-13T21:16:33.430Z,97798.66
2023-04-13T21:19:37.794Z,97800.41
2023-04-13T21:22:40.766Z,97797.53
2023-04-13T21:25:44.925Z,97795.28
2023-04-13T21:28:47.552Z,97793.81
2023-04-13T21:31:50.164Z,97791.13
2023-04-13T21:34:54.732Z,97788.25
2023-04-13T21:37:57.261Z,97786.81
2023-04-13T21:41:01.193Z,97791.91
2023-04-13T21:44:03.813Z,97790.47
2023-04-13T21:47:07.053Z,97801.50
2023-04-13T21:50:10.550Z,97798.78
2023-04-13T21:53:13.115Z,97793.50
2023-04-13T21:56:17.095Z,97804.72
2023-04-13T21:59:19.781Z,97802.31
2023-04-13T22:02:22.559Z,97801.03
2023-04-13T22:05:25.101Z,97798.16
2023-04-13T22:08:27.642Z,97790.97
2023-04-13T22:11:31.720Z,97778.19
2023-04-13T22:14:34.309Z,97788.06
2023-04-13T22:17:37.180Z,97787.44
2023-04-13T22:20:39.757Z,97780.25
2023-04-13T22:23:42.584Z,97782.00
2023-04-13T22:26:46.751Z,97775.75
2023-04-13T22:29:49.361Z,97783.13
2023-04-13T22:32:51.966Z,97784.72
2023-04-13T22:35:55.032Z,97799.72
2023-04-13T22:38:57.604Z,97792.19
2023-04-13T22:42:01.630Z,97806.25
2023-04-13T22:45:04.531Z,97798.91
2023-04-13T22:48:07.545Z,97802.75
2023-04-13T22:51:10.066Z,97780.25
2023-04-13T22:54:12.645Z,97773.19
2023-04-13T22:57:16.561Z,97777.53
2023-04-13T23:00:20.906Z,97775.09
2023-04-13T23:03:23.751Z,97776.69
2023-04-13T23:06:27.553Z,97761.16
2023-04-13T23:09:30.117Z,97757.34
2023-04-13T23:12:33.919Z,97764.53
2023-04-13T23:15:36.458Z,97765.16
2023-04-13T23:18:39.040Z,97770.75
2023-04-13T23:21:42.481Z,97772.06
2023-04-13T23:24:45.011Z,97775.69
2023-04-13T23:27:49.064Z,97772.50
2023-04-13T23:30:51.620Z,97779.88
2023-04-13T23:33:55.138Z,97779.38
2023-04-13T23:36:57.842Z,97777.44
2023-04-13T23:40:00.853Z,97785.16
2023-04-13T23:43:04.737Z,97784.19
2023-04-13T23:46:07.382Z,97783.69
2023-04-13T23:49:10.069Z,97781.63
2023-04-13T23:52:12.600Z,97773.00
2023-04-13T23:55:15.533Z,97778.47
2023-04-13T23:58:19.567Z,97774.00
